SKW3298 KSEA-KSLC
Flight info
| Callsign | SKW3298 |
|---|---|
| Flight time | 1h 27m |
| Altitude | 35000 |
| Route | SUMMA2 SUMMA WANTA Q154 BYI SKEES6 |
| Aircraft | E175/M-SDE3GILORVW/S |
Departure
| Time | 2026-05-07 22:23 |
|---|---|
| Airport | Seattle–Tacoma International Airport (KSEA) |
Arrival
| Time | 2026-05-07 23:50 |
|---|---|
| Airport | Salt Lake City International Airport (KSLC) |
| Time | Latitude | Longitude | Altitude | Speed | Heading |
|---|---|---|---|---|---|
| 2026-05-07 21:57 | 47.44601 | -122.30473 | 400 ft | 0 kts | 90° |
| 2026-05-07 22:14 | 47.44601 | -122.30491 | 400 ft | 4 kts | 85° |
| 2026-05-07 22:14 | 47.44594 | -122.30528 | 397 ft | 4 kts | 59° |
| 2026-05-07 22:14 | 47.44575 | -122.30553 | 395 ft | 2 kts | 19° |
| 2026-05-07 22:14 | 47.44573 | -122.30554 | 398 ft | 0 kts | 18° |
| 2026-05-07 22:18 | 47.44588 | -122.30550 | 398 ft | 7 kts | 355° |
| 2026-05-07 22:18 | 47.44755 | -122.30630 | 399 ft | 14 kts | 1° |
| 2026-05-07 22:18 | 47.44856 | -122.30628 | 404 ft | 14 kts | 359° |
| 2026-05-07 22:19 | 47.44953 | -122.30628 | 408 ft | 13 kts | 360° |
| 2026-05-07 22:19 | 47.45043 | -122.30628 | 411 ft | 13 kts | 360° |
| 2026-05-07 22:19 | 47.45144 | -122.30627 | 409 ft | 18 kts | 0° |
| 2026-05-07 22:19 | 47.45264 | -122.30627 | 419 ft | 16 kts | 1° |
| 2026-05-07 22:20 | 47.45370 | -122.30624 | 421 ft | 14 kts | 0° |
| 2026-05-07 22:20 | 47.45463 | -122.30624 | 425 ft | 13 kts | 360° |
| 2026-05-07 22:20 | 47.45575 | -122.30622 | 426 ft | 19 kts | 0° |
| 2026-05-07 22:20 | 47.45715 | -122.30621 | 428 ft | 21 kts | 360° |
| 2026-05-07 22:21 | 47.45861 | -122.30620 | 435 ft | 21 kts | 0° |
| 2026-05-07 22:21 | 47.46008 | -122.30618 | 438 ft | 21 kts | 1° |
| 2026-05-07 22:21 | 47.46155 | -122.30618 | 438 ft | 22 kts | 1° |
| 2026-05-07 22:21 | 47.46311 | -122.30618 | 437 ft | 23 kts | 359° |
| 2026-05-07 22:22 | 47.46378 | -122.30696 | 436 ft | 13 kts | 265° |
| 2026-05-07 22:22 | 47.46301 | -122.30776 | 429 ft | 18 kts | 183° |
| 2026-05-07 22:22 | 47.46028 | -122.30781 | 430 ft | 75 kts | 180° |
| 2026-05-07 22:22 | 47.45233 | -122.30788 | 420 ft | 149 kts | 180° |
| 2026-05-07 22:23 | 47.44087 | -122.30766 | 958 ft | 176 kts | 178° |
| 2026-05-07 22:23 | 47.42833 | -122.30678 | 1839 ft | 184 kts | 176° |
| 2026-05-07 22:23 | 47.41515 | -122.30516 | 2579 ft | 195 kts | 174° |
| 2026-05-07 22:23 | 47.40127 | -122.30197 | 3258 ft | 211 kts | 168° |
| 2026-05-07 22:24 | 47.38613 | -122.29749 | 3867 ft | 233 kts | 171° |
| 2026-05-07 22:24 | 47.36928 | -122.29394 | 4450 ft | 255 kts | 174° |
| 2026-05-07 22:24 | 47.35109 | -122.29086 | 5057 ft | 275 kts | 175° |
| 2026-05-07 22:24 | 47.33155 | -122.28837 | 5966 ft | 283 kts | 176° |
| 2026-05-07 22:25 | 47.31165 | -122.28640 | 6956 ft | 289 kts | 178° |
| 2026-05-07 22:25 | 47.29160 | -122.28546 | 7970 ft | 291 kts | 181° |
| 2026-05-07 22:25 | 47.27138 | -122.28645 | 9013 ft | 291 kts | 184° |
| 2026-05-07 22:25 | 47.25116 | -122.28900 | 10015 ft | 293 kts | 188° |
| 2026-05-07 22:26 | 47.23045 | -122.28992 | 10584 ft | 312 kts | 172° |
| 2026-05-07 22:26 | 47.20887 | -122.28204 | 11251 ft | 324 kts | 166° |
| 2026-05-07 22:26 | 47.18705 | -122.27383 | 12191 ft | 328 kts | 166° |
| 2026-05-07 22:26 | 47.16483 | -122.26450 | 13188 ft | 332 kts | 164° |
| 2026-05-07 22:27 | 47.14256 | -122.25400 | 14162 ft | 338 kts | 163° |
| 2026-05-07 22:27 | 47.12772 | -122.24662 | 14780 ft | 341 kts | 162° |
| 2026-05-07 22:27 | 47.09757 | -122.23160 | 16040 ft | 346 kts | 163° |
| 2026-05-07 22:27 | 47.08234 | -122.22394 | 16639 ft | 350 kts | 163° |
| 2026-05-07 22:28 | 47.05139 | -122.20823 | 17732 ft | 357 kts | 162° |
| 2026-05-07 22:28 | 47.02773 | -122.19631 | 18533 ft | 362 kts | 163° |
| 2026-05-07 22:28 | 47.01154 | -122.18819 | 19007 ft | 365 kts | 163° |
| 2026-05-07 22:28 | 46.98758 | -122.17617 | 19705 ft | 369 kts | 163° |
| 2026-05-07 22:29 | 46.96305 | -122.16394 | 20428 ft | 374 kts | 163° |
| 2026-05-07 22:29 | 46.93813 | -122.15148 | 21148 ft | 378 kts | 163° |
| 2026-05-07 22:29 | 46.91332 | -122.13910 | 21821 ft | 382 kts | 163° |
| 2026-05-07 22:29 | 46.88789 | -122.12643 | 22511 ft | 386 kts | 164° |
| 2026-05-07 22:30 | 46.86253 | -122.11390 | 23121 ft | 390 kts | 164° |
| 2026-05-07 22:30 | 46.83663 | -122.10114 | 23687 ft | 395 kts | 164° |
| 2026-05-07 22:30 | 46.81044 | -122.08822 | 24179 ft | 399 kts | 164° |
| 2026-05-07 22:30 | 46.78380 | -122.07484 | 24671 ft | 403 kts | 164° |
| 2026-05-07 22:31 | 46.75729 | -122.06159 | 25166 ft | 407 kts | 164° |
| 2026-05-07 22:31 | 46.73033 | -122.04820 | 25631 ft | 411 kts | 164° |
| 2026-05-07 22:31 | 46.70291 | -122.03470 | 26132 ft | 415 kts | 165° |
| 2026-05-07 22:31 | 46.67571 | -122.02144 | 26560 ft | 419 kts | 165° |
| 2026-05-07 22:32 | 46.64768 | -122.00765 | 27010 ft | 423 kts | 165° |
| 2026-05-07 22:32 | 46.61986 | -121.99388 | 27474 ft | 427 kts | 163° |
| 2026-05-07 22:32 | 46.59341 | -121.97299 | 27872 ft | 438 kts | 143° |
| 2026-05-07 22:32 | 46.57268 | -121.94012 | 28335 ft | 445 kts | 124° |
| 2026-05-07 22:33 | 46.55833 | -121.90072 | 28729 ft | 448 kts | 115° |
| 2026-05-07 22:33 | 46.54584 | -121.85904 | 29069 ft | 452 kts | 112° |
| 2026-05-07 22:33 | 46.53335 | -121.81660 | 29314 ft | 458 kts | 114° |
| 2026-05-07 22:33 | 46.52026 | -121.77412 | 29751 ft | 460 kts | 115° |
| 2026-05-07 22:34 | 46.50685 | -121.73177 | 30147 ft | 463 kts | 115° |
| 2026-05-07 22:34 | 46.49369 | -121.68946 | 30449 ft | 466 kts | 115° |
| 2026-05-07 22:34 | 46.48006 | -121.64628 | 30753 ft | 469 kts | 114° |
| 2026-05-07 22:34 | 46.46518 | -121.60398 | 31028 ft | 471 kts | 120° |
| 2026-05-07 22:35 | 46.44819 | -121.56359 | 31343 ft | 473 kts | 123° |
| 2026-05-07 22:35 | 46.43067 | -121.52293 | 31609 ft | 476 kts | 122° |
| 2026-05-07 22:35 | 46.41302 | -121.48213 | 31928 ft | 477 kts | 123° |
| 2026-05-07 22:35 | 46.39533 | -121.44187 | 32173 ft | 481 kts | 122° |
| 2026-05-07 22:36 | 46.37746 | -121.40035 | 32489 ft | 482 kts | 122° |
| 2026-05-07 22:36 | 46.35987 | -121.35953 | 32846 ft | 482 kts | 122° |
| 2026-05-07 22:36 | 46.34211 | -121.31824 | 33237 ft | 480 kts | 122° |
| 2026-05-07 22:36 | 46.32442 | -121.27709 | 33570 ft | 480 kts | 123° |
| 2026-05-07 22:37 | 46.30701 | -121.23647 | 33880 ft | 481 kts | 121° |
| 2026-05-07 22:37 | 46.28940 | -121.19512 | 34150 ft | 481 kts | 122° |
| 2026-05-07 22:37 | 46.27157 | -121.15397 | 34501 ft | 480 kts | 122° |
| 2026-05-07 22:37 | 46.25390 | -121.11361 | 34797 ft | 479 kts | 123° |
| 2026-05-07 22:38 | 46.23618 | -121.07265 | 35087 ft | 478 kts | 122° |
| 2026-05-07 22:38 | 46.20027 | -120.98959 | 35088 ft | 493 kts | 122° |
| 2026-05-07 22:39 | 46.16334 | -120.90491 | 35001 ft | 504 kts | 122° |
| 2026-05-07 22:39 | 46.12578 | -120.81931 | 34982 ft | 507 kts | 123° |
| 2026-05-07 22:40 | 46.08819 | -120.73379 | 34992 ft | 505 kts | 122° |
| 2026-05-07 22:40 | 46.05080 | -120.64836 | 35012 ft | 505 kts | 122° |
| 2026-05-07 22:41 | 46.01311 | -120.56293 | 35003 ft | 506 kts | 123° |
| 2026-05-07 22:41 | 45.97514 | -120.47742 | 34990 ft | 505 kts | 123° |
| 2026-05-07 22:42 | 45.93737 | -120.39249 | 35003 ft | 506 kts | 123° |
| 2026-05-07 22:42 | 45.89952 | -120.30708 | 35005 ft | 505 kts | 122° |
| 2026-05-07 22:43 | 45.86166 | -120.22227 | 34987 ft | 506 kts | 123° |
| 2026-05-07 22:43 | 45.82378 | -120.13765 | 34998 ft | 506 kts | 123° |
| 2026-05-07 22:44 | 45.78561 | -120.05271 | 35001 ft | 505 kts | 123° |
| 2026-05-07 22:44 | 45.74742 | -119.96802 | 35013 ft | 505 kts | 123° |
| 2026-05-07 22:45 | 45.70923 | -119.88365 | 34995 ft | 508 kts | 123° |
| 2026-05-07 22:45 | 45.67069 | -119.79869 | 35006 ft | 508 kts | 123° |
| 2026-05-07 22:46 | 45.63220 | -119.71427 | 35012 ft | 508 kts | 123° |
| 2026-05-07 22:46 | 45.59371 | -119.62990 | 35020 ft | 508 kts | 123° |
| 2026-05-07 22:47 | 45.55494 | -119.54503 | 35008 ft | 508 kts | 123° |
| 2026-05-07 22:47 | 45.51635 | -119.46098 | 35019 ft | 509 kts | 123° |
| 2026-05-07 22:48 | 45.47750 | -119.37661 | 35001 ft | 508 kts | 123° |
| 2026-05-07 22:48 | 45.43879 | -119.29268 | 35050 ft | 509 kts | 123° |
| 2026-05-07 22:49 | 45.39987 | -119.20864 | 35034 ft | 509 kts | 123° |
| 2026-05-07 22:49 | 45.36100 | -119.12498 | 35035 ft | 508 kts | 123° |
| 2026-05-07 22:50 | 45.32185 | -119.04095 | 35041 ft | 508 kts | 123° |
| 2026-05-07 22:50 | 45.28273 | -118.95715 | 35026 ft | 511 kts | 123° |
| 2026-05-07 22:51 | 45.24360 | -118.87346 | 35041 ft | 509 kts | 123° |
| 2026-05-07 22:51 | 45.20413 | -118.78952 | 35034 ft | 510 kts | 123° |
| 2026-05-07 22:52 | 45.16490 | -118.70599 | 35049 ft | 510 kts | 123° |
| 2026-05-07 22:52 | 45.12555 | -118.62265 | 35065 ft | 510 kts | 123° |
| 2026-05-07 22:53 | 45.08597 | -118.53905 | 35014 ft | 511 kts | 124° |
| 2026-05-07 22:53 | 45.04653 | -118.45589 | 35066 ft | 509 kts | 123° |
| 2026-05-07 22:54 | 45.00695 | -118.37301 | 35072 ft | 510 kts | 124° |
| 2026-05-07 22:54 | 44.96550 | -118.29182 | 35085 ft | 510 kts | 128° |
| 2026-05-07 22:55 | 44.92187 | -118.21319 | 35059 ft | 509 kts | 128° |
| 2026-05-07 22:55 | 44.87884 | -118.13400 | 35053 ft | 510 kts | 127° |
| 2026-05-07 22:56 | 44.83548 | -118.05421 | 35079 ft | 512 kts | 127° |
| 2026-05-07 22:56 | 44.79249 | -117.97482 | 35049 ft | 512 kts | 127° |
| 2026-05-07 22:57 | 44.74892 | -117.89482 | 35047 ft | 513 kts | 127° |
| 2026-05-07 22:57 | 44.70558 | -117.81567 | 35044 ft | 513 kts | 127° |
| 2026-05-07 22:58 | 44.66178 | -117.73587 | 35048 ft | 513 kts | 127° |
| 2026-05-07 22:58 | 44.61836 | -117.65683 | 35033 ft | 513 kts | 127° |
| 2026-05-07 22:59 | 44.57464 | -117.57746 | 35024 ft | 511 kts | 128° |
| 2026-05-07 22:59 | 44.53103 | -117.49851 | 35000 ft | 514 kts | 127° |
| 2026-05-07 23:00 | 44.48727 | -117.41954 | 34989 ft | 514 kts | 128° |
| 2026-05-07 23:00 | 44.44316 | -117.34046 | 34967 ft | 513 kts | 128° |
| 2026-05-07 23:01 | 44.39969 | -117.26211 | 35047 ft | 515 kts | 128° |
| 2026-05-07 23:01 | 44.35550 | -117.18314 | 34980 ft | 513 kts | 127° |
| 2026-05-07 23:02 | 44.31500 | -117.10104 | 34985 ft | 514 kts | 122° |
| 2026-05-07 23:02 | 44.27524 | -117.01817 | 34975 ft | 516 kts | 123° |
| 2026-05-07 23:03 | 44.23484 | -116.93564 | 34978 ft | 516 kts | 123° |
| 2026-05-07 23:03 | 44.19415 | -116.85303 | 34980 ft | 516 kts | 123° |
| 2026-05-07 23:04 | 44.15333 | -116.77035 | 34986 ft | 516 kts | 123° |
| 2026-05-07 23:04 | 44.11266 | -116.68828 | 34974 ft | 516 kts | 123° |
| 2026-05-07 23:05 | 44.07194 | -116.60628 | 34982 ft | 517 kts | 123° |
| 2026-05-07 23:05 | 44.03098 | -116.52408 | 34974 ft | 516 kts | 123° |
| 2026-05-07 23:06 | 43.99010 | -116.44223 | 34990 ft | 516 kts | 123° |
| 2026-05-07 23:06 | 43.94912 | -116.36046 | 35044 ft | 512 kts | 124° |
| 2026-05-07 23:07 | 43.90805 | -116.27884 | 34981 ft | 515 kts | 123° |
| 2026-05-07 23:07 | 43.86726 | -116.19752 | 34975 ft | 515 kts | 123° |
| 2026-05-07 23:08 | 43.82591 | -116.11587 | 34950 ft | 517 kts | 123° |
| 2026-05-07 23:08 | 43.78484 | -116.03472 | 34964 ft | 515 kts | 124° |
| 2026-05-07 23:09 | 43.74381 | -115.95386 | 34974 ft | 516 kts | 124° |
| 2026-05-07 23:09 | 43.70227 | -115.87255 | 34968 ft | 516 kts | 124° |
| 2026-05-07 23:10 | 43.66093 | -115.79171 | 34968 ft | 517 kts | 124° |
| 2026-05-07 23:10 | 43.61901 | -115.71087 | 34976 ft | 515 kts | 126° |
| 2026-05-07 23:11 | 43.57566 | -115.63225 | 34969 ft | 516 kts | 126° |
| 2026-05-07 23:11 | 43.53228 | -115.55332 | 34956 ft | 515 kts | 126° |
| 2026-05-07 23:12 | 43.48928 | -115.47472 | 34963 ft | 516 kts | 126° |
| 2026-05-07 23:12 | 43.45303 | -115.40830 | 34975 ft | 517 kts | 127° |
| 2026-05-07 23:13 | 43.40960 | -115.32977 | 34964 ft | 519 kts | 126° |
| 2026-05-07 23:13 | 43.36586 | -115.25054 | 34963 ft | 518 kts | 126° |
| 2026-05-07 23:14 | 43.32223 | -115.17172 | 34971 ft | 518 kts | 126° |
| 2026-05-07 23:14 | 43.27866 | -115.09316 | 34958 ft | 518 kts | 126° |
| 2026-05-07 23:15 | 43.23513 | -115.01481 | 34958 ft | 518 kts | 126° |
| 2026-05-07 23:15 | 43.19135 | -114.93624 | 34972 ft | 519 kts | 126° |
| 2026-05-07 23:16 | 43.14714 | -114.85726 | 34987 ft | 520 kts | 126° |
| 2026-05-07 23:16 | 43.10321 | -114.77889 | 34993 ft | 519 kts | 126° |
| 2026-05-07 23:17 | 43.05934 | -114.70081 | 35009 ft | 519 kts | 126° |
| 2026-05-07 23:17 | 43.01531 | -114.62274 | 35027 ft | 520 kts | 126° |
| 2026-05-07 23:18 | 42.97098 | -114.54433 | 35011 ft | 521 kts | 126° |
| 2026-05-07 23:18 | 42.92670 | -114.46613 | 34986 ft | 521 kts | 126° |
| 2026-05-07 23:19 | 42.88239 | -114.38820 | 34995 ft | 521 kts | 126° |
| 2026-05-07 23:19 | 42.83778 | -114.30988 | 34941 ft | 521 kts | 126° |
| 2026-05-07 23:20 | 42.79344 | -114.23224 | 34937 ft | 521 kts | 126° |
| 2026-05-07 23:20 | 42.74875 | -114.15422 | 34938 ft | 520 kts | 127° |
| 2026-05-07 23:21 | 42.70442 | -114.07703 | 34959 ft | 520 kts | 127° |
| 2026-05-07 23:21 | 42.66001 | -113.99985 | 34973 ft | 520 kts | 127° |
| 2026-05-07 23:22 | 42.61523 | -113.92225 | 34985 ft | 520 kts | 127° |
| 2026-05-07 23:22 | 42.56920 | -113.84713 | 35020 ft | 520 kts | 133° |
| 2026-05-07 23:23 | 42.51716 | -113.77786 | 34974 ft | 522 kts | 136° |
| 2026-05-07 23:23 | 42.46527 | -113.70959 | 34983 ft | 522 kts | 135° |
| 2026-05-07 23:24 | 42.41348 | -113.64101 | 34985 ft | 522 kts | 135° |
| 2026-05-07 23:24 | 42.36138 | -113.57217 | 34981 ft | 521 kts | 135° |
| 2026-05-07 23:25 | 42.30963 | -113.50385 | 34961 ft | 520 kts | 135° |
| 2026-05-07 23:25 | 42.25793 | -113.43558 | 34939 ft | 521 kts | 135° |
| 2026-05-07 23:26 | 42.20609 | -113.36701 | 34952 ft | 524 kts | 135° |
| 2026-05-07 23:26 | 42.15389 | -113.29813 | 34965 ft | 521 kts | 135° |
| 2026-05-07 23:27 | 42.07663 | -113.19650 | 34303 ft | 504 kts | 135° |
| 2026-05-07 23:27 | 42.05174 | -113.16383 | 33488 ft | 503 kts | 135° |
| 2026-05-07 23:27 | 42.02677 | -113.13092 | 32853 ft | 496 kts | 135° |
| 2026-05-07 23:28 | 42.00246 | -113.09901 | 32240 ft | 490 kts | 135° |
| 2026-05-07 23:28 | 41.97798 | -113.06707 | 31498 ft | 488 kts | 135° |
| 2026-05-07 23:28 | 41.95367 | -113.03537 | 30887 ft | 482 kts | 135° |
| 2026-05-07 23:28 | 41.92995 | -113.00443 | 30241 ft | 478 kts | 135° |
| 2026-05-07 23:29 | 41.90615 | -112.97337 | 29540 ft | 474 kts | 135° |
| 2026-05-07 23:29 | 41.88263 | -112.94276 | 28983 ft | 466 kts | 135° |
| 2026-05-07 23:29 | 41.85939 | -112.91253 | 28349 ft | 461 kts | 135° |
| 2026-05-07 23:29 | 41.83661 | -112.88293 | 27745 ft | 462 kts | 135° |
| 2026-05-07 23:30 | 41.81342 | -112.85280 | 27127 ft | 464 kts | 135° |
| 2026-05-07 23:30 | 41.79048 | -112.82306 | 26516 ft | 462 kts | 135° |
| 2026-05-07 23:30 | 41.76741 | -112.79318 | 25898 ft | 458 kts | 135° |
| 2026-05-07 23:30 | 41.74453 | -112.76358 | 25282 ft | 453 kts | 135° |
| 2026-05-07 23:31 | 41.72189 | -112.73431 | 24688 ft | 447 kts | 135° |
| 2026-05-07 23:31 | 41.69990 | -112.70589 | 24110 ft | 442 kts | 135° |
| 2026-05-07 23:31 | 41.67777 | -112.67734 | 23517 ft | 436 kts | 135° |
| 2026-05-07 23:31 | 41.65595 | -112.64925 | 22923 ft | 429 kts | 135° |
| 2026-05-07 23:32 | 41.63487 | -112.62211 | 22375 ft | 423 kts | 135° |
| 2026-05-07 23:32 | 41.61366 | -112.59480 | 21820 ft | 420 kts | 135° |
| 2026-05-07 23:32 | 41.59253 | -112.56777 | 21263 ft | 419 kts | 136° |
| 2026-05-07 23:32 | 41.57135 | -112.54093 | 20724 ft | 419 kts | 135° |
| 2026-05-07 23:33 | 41.55050 | -112.51408 | 20141 ft | 419 kts | 135° |
| 2026-05-07 23:33 | 41.52953 | -112.48717 | 19608 ft | 416 kts | 136° |
| 2026-05-07 23:33 | 41.50836 | -112.46178 | 19084 ft | 410 kts | 139° |
| 2026-05-07 23:33 | 41.48674 | -112.43694 | 18514 ft | 409 kts | 139° |
| 2026-05-07 23:34 | 41.46533 | -112.41204 | 17948 ft | 405 kts | 139° |
| 2026-05-07 23:34 | 41.44369 | -112.38803 | 17377 ft | 400 kts | 147° |
| 2026-05-07 23:34 | 41.42006 | -112.36990 | 16907 ft | 393 kts | 155° |
| 2026-05-07 23:34 | 41.39536 | -112.35408 | 16343 ft | 389 kts | 157° |
| 2026-05-07 23:35 | 41.37133 | -112.33909 | 15878 ft | 383 kts | 158° |
| 2026-05-07 23:35 | 41.34731 | -112.32380 | 15369 ft | 378 kts | 157° |
| 2026-05-07 23:35 | 41.32380 | -112.30851 | 14874 ft | 374 kts | 157° |
| 2026-05-07 23:35 | 41.30054 | -112.29337 | 14397 ft | 369 kts | 157° |
| 2026-05-07 23:36 | 41.27781 | -112.27859 | 13913 ft | 365 kts | 157° |
| 2026-05-07 23:36 | 41.25509 | -112.26375 | 13429 ft | 360 kts | 157° |
| 2026-05-07 23:36 | 41.23282 | -112.24920 | 13157 ft | 350 kts | 158° |
| 2026-05-07 23:36 | 41.21133 | -112.23521 | 12943 ft | 344 kts | 157° |
| 2026-05-07 23:37 | 41.19029 | -112.22146 | 12913 ft | 329 kts | 157° |
| 2026-05-07 23:37 | 41.16983 | -112.20810 | 12958 ft | 324 kts | 158° |
| 2026-05-07 23:37 | 41.14931 | -112.19481 | 13024 ft | 330 kts | 158° |
| 2026-05-07 23:37 | 41.12861 | -112.18142 | 13021 ft | 330 kts | 158° |
| 2026-05-07 23:38 | 41.10813 | -112.16815 | 12992 ft | 331 kts | 158° |
| 2026-05-07 23:38 | 41.08742 | -112.15472 | 12887 ft | 333 kts | 158° |
| 2026-05-07 23:38 | 41.06573 | -112.14497 | 12752 ft | 323 kts | 172° |
| 2026-05-07 23:38 | 41.04391 | -112.13951 | 12581 ft | 322 kts | 175° |
| 2026-05-07 23:39 | 41.02168 | -112.13498 | 12292 ft | 322 kts | 176° |
| 2026-05-07 23:39 | 40.99954 | -112.13051 | 12037 ft | 318 kts | 175° |
| 2026-05-07 23:39 | 40.97799 | -112.12600 | 11792 ft | 314 kts | 175° |
| 2026-05-07 23:39 | 40.95645 | -112.12144 | 11535 ft | 313 kts | 175° |
| 2026-05-07 23:40 | 40.93489 | -112.11679 | 11312 ft | 312 kts | 175° |
| 2026-05-07 23:40 | 40.91349 | -112.11218 | 11117 ft | 309 kts | 175° |
| 2026-05-07 23:40 | 40.89256 | -112.10774 | 11055 ft | 306 kts | 176° |
| 2026-05-07 23:40 | 40.87135 | -112.10487 | 10973 ft | 307 kts | 180° |
| 2026-05-07 23:41 | 40.85004 | -112.10292 | 10972 ft | 305 kts | 180° |
| 2026-05-07 23:41 | 40.82885 | -112.10086 | 11012 ft | 305 kts | 180° |
| 2026-05-07 23:41 | 40.80778 | -112.09854 | 10992 ft | 307 kts | 179° |
| 2026-05-07 23:41 | 40.78642 | -112.09603 | 11005 ft | 307 kts | 179° |
| 2026-05-07 23:42 | 40.76531 | -112.09358 | 10981 ft | 306 kts | 179° |
| 2026-05-07 23:42 | 40.74396 | -112.09109 | 11000 ft | 307 kts | 179° |
| 2026-05-07 23:42 | 40.72271 | -112.08857 | 10997 ft | 305 kts | 179° |
| 2026-05-07 23:42 | 40.70170 | -112.08606 | 10988 ft | 308 kts | 179° |
| 2026-05-07 23:43 | 40.68045 | -112.08357 | 10898 ft | 299 kts | 179° |
| 2026-05-07 23:43 | 40.66047 | -112.08125 | 10836 ft | 277 kts | 179° |
| 2026-05-07 23:43 | 40.64171 | -112.07909 | 10765 ft | 262 kts | 180° |
| 2026-05-07 23:43 | 40.62420 | -112.07705 | 10697 ft | 249 kts | 180° |
| 2026-05-07 23:44 | 40.60726 | -112.07510 | 10592 ft | 239 kts | 180° |
| 2026-05-07 23:44 | 40.59064 | -112.07324 | 10361 ft | 238 kts | 180° |
| 2026-05-07 23:44 | 40.57436 | -112.07117 | 10151 ft | 238 kts | 174° |
| 2026-05-07 23:44 | 40.55867 | -112.06357 | 9876 ft | 245 kts | 150° |
| 2026-05-07 23:45 | 40.54663 | -112.04745 | 9524 ft | 252 kts | 121° |
| 2026-05-07 23:45 | 40.54153 | -112.02572 | 9215 ft | 252 kts | 91° |
| 2026-05-07 23:45 | 40.54436 | -112.00327 | 8872 ft | 247 kts | 62° |
| 2026-05-07 23:45 | 40.55397 | -111.98527 | 8589 ft | 237 kts | 38° |
| 2026-05-07 23:46 | 40.56792 | -111.97481 | 8279 ft | 227 kts | 11° |
| 2026-05-07 23:46 | 40.58310 | -111.97294 | 7980 ft | 219 kts | 351° |
| 2026-05-07 23:46 | 40.59843 | -111.97488 | 7699 ft | 225 kts | 349° |
| 2026-05-07 23:46 | 40.61436 | -111.97706 | 7384 ft | 233 kts | 350° |
| 2026-05-07 23:47 | 40.63067 | -111.97907 | 7101 ft | 239 kts | 353° |
| 2026-05-07 23:47 | 40.64744 | -111.98090 | 6750 ft | 242 kts | 355° |
| 2026-05-07 23:47 | 40.66406 | -111.98280 | 6394 ft | 232 kts | 354° |
| 2026-05-07 23:47 | 40.67934 | -111.98463 | 6139 ft | 208 kts | 354° |
| 2026-05-07 23:48 | 40.69304 | -111.98616 | 5808 ft | 187 kts | 353° |
| 2026-05-07 23:48 | 40.70541 | -111.98753 | 5551 ft | 170 kts | 353° |
| 2026-05-07 23:48 | 40.71674 | -111.98879 | 5313 ft | 157 kts | 354° |
| 2026-05-07 23:48 | 40.72734 | -111.98998 | 5116 ft | 151 kts | 352° |
| 2026-05-07 23:49 | 40.73782 | -111.99115 | 4927 ft | 152 kts | 353° |
| 2026-05-07 23:49 | 40.74838 | -111.99235 | 4722 ft | 152 kts | 351° |
| 2026-05-07 23:49 | 40.75882 | -111.99358 | 4584 ft | 152 kts | 354° |
| 2026-05-07 23:49 | 40.76924 | -111.99479 | 4404 ft | 148 kts | 354° |
| 2026-05-07 23:50 | 40.77932 | -111.99596 | 4254 ft | 136 kts | 353° |
| 2026-05-07 23:50 | 40.78778 | -111.99702 | 4230 ft | 112 kts | 355° |
| 2026-05-07 23:50 | 40.79439 | -111.99776 | 4228 ft | 78 kts | 354° |
| 2026-05-07 23:50 | 40.79771 | -111.99747 | 4228 ft | 35 kts | 26° |
| 2026-05-07 23:51 | 40.79863 | -111.99607 | 4229 ft | 10 kts | 90° |
| 2026-05-07 23:51 | 40.79846 | -111.99519 | 4229 ft | 10 kts | 135° |
| 2026-05-07 23:51 | 40.79775 | -111.99499 | 4229 ft | 11 kts | 175° |
| 2026-05-07 23:51 | 40.79690 | -111.99489 | 4229 ft | 13 kts | 175° |
| 2026-05-07 23:52 | 40.79595 | -111.99478 | 4229 ft | 14 kts | 175° |
| 2026-05-07 23:52 | 40.79490 | -111.99466 | 4229 ft | 16 kts | 175° |
| 2026-05-07 23:52 | 40.79379 | -111.99453 | 4229 ft | 17 kts | 175° |
| 2026-05-07 23:52 | 40.79256 | -111.99439 | 4229 ft | 18 kts | 174° |
| 2026-05-07 23:53 | 40.79128 | -111.99423 | 4229 ft | 19 kts | 175° |
| 2026-05-07 23:53 | 40.78993 | -111.99408 | 4229 ft | 20 kts | 174° |
| 2026-05-07 23:53 | 40.78851 | -111.99391 | 4229 ft | 21 kts | 174° |
| 2026-05-07 23:53 | 40.78728 | -111.99372 | 4229 ft | 9 kts | 148° |
| 2026-05-07 23:54 | 40.78724 | -111.99318 | 4229 ft | 9 kts | 85° |
| 2026-05-07 23:54 | 40.78725 | -111.99224 | 4229 ft | 11 kts | 89° |
| 2026-05-07 23:54 | 40.78731 | -111.99115 | 4229 ft | 13 kts | 85° |
| 2026-05-07 23:54 | 40.78738 | -111.99053 | 4229 ft | 2 kts | 52° |
| 2026-05-07 23:55 | 40.78754 | -111.99046 | 4229 ft | 4 kts | 3° |
| 2026-05-07 23:55 | 40.78790 | -111.99050 | 4229 ft | 6 kts | 355° |
| 2026-05-07 23:55 | 40.78808 | -111.99052 | 4229 ft | 1 kts | 355° |
| 2026-05-07 23:55 | 40.78814 | -111.99053 | 4229 ft | 1 kts | 355° |